Time;durP1;ratioP1;P1;durP2;ratioP2;P2;SDS_P1;SDS_P2;PMS_P1;PMS_P2;Temp;Humidity;BMP_temperature;BMP_pressure;BME280_temperature;BME280_humidity;BME280_pressure;Samples;Min_cycle;Max_cycle;Signal;HPM_P1;HPM_P2
2022/08/15 00:04:44;;;;;;;7.50;5.40;;;;;;;18.73;71.36;98827.02;446823;1271;147175;-63
2022/08/15 00:14:55;;;;;;;7.50;6.30;;;;;;;18.67;71.83;98823.52;447185;1270;210601;-62
2022/08/15 00:25:01;;;;;;;10.20;5.00;;;;;;;18.61;71.98;98818.74;447108;1272;143210;-62
2022/08/15 00:35:35;;;;;;;7.30;6.60;;;;;;;18.48;72.35;98819.02;446371;1272;143907;-62
2022/08/15 00:45:43;;;;;;;6.70;6.20;;;;;;;18.31;72.77;98823.34;447428;1271;141307;-62
2022/08/15 00:56:01;;;;;;;6.80;5.90;;;;;;;18.23;73.13;98816.64;446656;1271;141707;-63
2022/08/15 01:06:09;;;;;;;7.60;5.80;;;;;;;18.14;73.18;98807.11;447144;1271;198318;-62
2022/08/15 01:16:16;;;;;;;9.00;7.20;;;;;;;18.02;73.53;98803.08;447447;1270;141916;-62
2022/08/15 01:26:24;;;;;;;7.50;5.70;;;;;;;17.96;73.88;98794.67;442788;1271;144967;-61
2022/08/15 01:36:51;;;;;;;7.80;7.10;;;;;;;17.93;74.08;98793.27;447205;1271;142465;-61
2022/08/15 01:47:08;;;;;;;8.20;7.30;;;;;;;17.92;74.77;98789.70;446687;1271;143510;-61
2022/08/15 01:57:17;;;;;;;7.60;6.80;;;;;;;17.91;75.11;98781.91;447450;1271;143067;-61
2022/08/15 02:07:28;;;;;;;8.30;7.50;;;;;;;17.81;75.40;98763.16;447214;1271;142673;-62
2022/08/15 02:17:38;;;;;;;9.10;7.70;;;;;;;17.83;76.45;98759.04;446672;1271;141047;-62
2022/08/15 02:27:46;;;;;;;10.60;8.30;;;;;;;17.88;76.92;98748.61;447578;1269;143642;-62
2022/08/15 02:37:58;;;;;;;12.00;9.30;;;;;;;17.91;77.29;98742.09;446711;1271;142104;-62
2022/08/15 02:48:06;;;;;;;15.50;9.70;;;;;;;18.03;77.90;98733.95;447440;1270;145111;-62
2022/08/15 02:58:32;;;;;;;11.40;10.20;;;;;;;18.11;78.28;98726.95;447425;1270;141509;-62
2022/08/15 03:08:39;;;;;;;12.70;11.50;;;;;;;18.13;78.58;98738.41;446682;1269;142852;-62
2022/08/15 03:18:50;;;;;;;12.90;11.30;;;;;;;18.18;79.08;98748.77;447427;1271;143813;-62
2022/08/15 03:28:56;;;;;;;11.90;10.70;;;;;;;18.26;79.14;98745.52;446781;1271;145615;-62
2022/08/15 03:39:08;;;;;;;12.60;11.30;;;;;;;18.35;79.35;98749.02;447412;1270;143168;-62
2022/08/15 03:49:15;;;;;;;14.00;12.00;;;;;;;18.47;79.57;98760.03;447516;1271;141861;-62
2022/08/15 03:59:22;;;;;;;15.00;11.70;;;;;;;18.64;79.53;98763.47;446655;1271;142540;-62
2022/08/15 04:09:29;;;;;;;12.50;11.20;;;;;;;18.72;79.30;98754.16;447480;1270;145321;-61
2022/08/15 04:19:35;;;;;;;14.60;12.60;;;;;;;18.77;79.02;98750.63;447409;1271;143222;-61
2022/08/15 04:29:53;;;;;;;12.20;10.50;;;;;;;18.95;78.84;98743.55;447408;1270;145452;-61
2022/08/15 04:40:03;;;;;;;12.20;11.10;;;;;;;19.17;78.57;98728.00;447381;1270;143726;-61
2022/08/15 04:50:30;;;;;;;13.30;11.70;;;;;;;19.47;78.26;98732.09;446693;1271;142173;-61
2022/08/15 05:00:40;;;;;;;12.60;11.50;;;;;;;20.01;77.47;98734.23;447451;1271;142008;-61
2022/08/15 05:10:54;;;;;;;12.50;11.30;;;;;;;20.79;76.54;98735.44;446712;1271;152702;-61
2022/08/15 05:21:03;;;;;;;13.70;11.60;;;;;;;22.51;74.42;98739.23;447479;1271;141766;-61
2022/08/15 05:31:11;;;;;;;11.00;10.00;;;;;;;28.68;66.25;98733.72;447458;1271;144889;-62
2022/08/15 05:41:30;;;;;;;11.60;10.40;;;;;;;34.08;55.95;98731.08;446660;1271;141759;-63
2022/08/15 05:51:46;;;;;;;10.20;9.20;;;;;;;37.76;48.19;98726.97;447470;1269;141989;-62
2022/08/15 06:02:08;;;;;;;9.30;8.20;;;;;;;39.73;42.50;98722.48;446656;1271;141302;-62
2022/08/15 06:12:38;;;;;;;10.30;9.30;;;;;;;35.85;43.08;98710.51;447486;1271;141860;-62
2022/08/15 06:22:55;;;;;;;10.00;9.00;;;;;;;35.74;41.65;98721.00;446728;1271;163266;-62
2022/08/15 06:33:12;;;;;;;10.40;9.40;;;;;;;32.50;43.84;98729.98;446469;1271;1300407;-62
2022/08/15 06:43:21;;;;;;;11.20;10.30;;;;;;;29.03;47.73;98725.42;447447;1271;144152;-61
2022/08/15 06:53:32;;;;;;;;;;;;;;;26.85;51.03;98732.96;446746;1271;141902;-61
2022/08/15 07:03:52;;;;;;;16.30;10.70;;;;;;;24.72;55.20;98743.56;447594;1271;128373;-62
2022/08/15 07:14:13;;;;;;;11.50;10.40;;;;;;;23.58;58.06;98750.52;446578;1269;142094;-61
2022/08/15 07:24:31;;;;;;;12.30;11.20;;;;;;;22.82;60.21;98752.86;447412;1271;146277;-61
2022/08/15 07:34:56;;;;;;;12.30;11.10;;;;;;;22.37;61.74;98757.95;447465;1269;143722;-63
2022/08/15 07:45:15;;;;;;;11.50;9.60;;;;;;;22.58;62.70;98754.84;446963;1273;141571;-61
2022/08/15 07:55:30;;;;;;;10.50;9.50;;;;;;;24.31;61.20;98760.67;447312;1271;142462;-61
2022/08/15 08:06:01;;;;;;;12.40;9.50;;;;;;;25.38;58.38;98762.41;447389;1271;142966;-62
2022/08/15 08:16:35;;;;;;;9.00;8.20;;;;;;;24.32;58.92;98763.35;447425;1270;142667;-62
2022/08/15 08:26:54;;;;;;;10.30;7.60;;;;;;;23.79;59.39;98758.52;447592;1271;142571;-62
2022/08/15 08:37:08;;;;;;;13.00;7.80;;;;;;;23.58;59.98;98759.73;447186;1272;142934;-62
2022/08/15 08:47:25;;;;;;;7.70;6.60;;;;;;;23.73;60.13;98764.34;446715;1269;145100;-62
2022/08/15 08:57:40;;;;;;;7.40;6.50;;;;;;;24.33;59.34;98766.85;447416;1270;142049;-62
2022/08/15 09:07:58;;;;;;;6.40;5.80;;;;;;;24.59;58.40;98762.23;446679;1270;160284;-63
2022/08/15 09:18:09;;;;;;;7.50;6.80;;;;;;;24.84;58.26;98762.54;447140;1271;143103;-63
2022/08/15 09:28:21;;;;;;;6.90;6.20;;;;;;;25.52;57.62;98764.45;447398;1271;143724;-61
2022/08/15 09:38:44;;;;;;;7.00;6.30;;;;;;;25.94;56.65;98756.48;446609;1271;142494;-63
2022/08/15 09:49:08;;;;;;;6.40;5.80;;;;;;;26.03;56.13;98739.36;447430;1271;141746;-64
2022/08/15 09:59:21;;;;;;;6.70;4.90;;;;;;;26.62;54.86;98730.80;442079;1271;142558;-63
2022/08/15 10:09:36;;;;;;;4.50;4.20;;;;;;;26.50;53.16;98729.89;433646;1271;141889;-62
2022/08/15 10:19:47;;;;;;;4.00;3.60;;;;;;;25.97;53.40;98726.74;446656;1269;143194;-63
2022/08/15 10:30:19;;;;;;;5.30;4.10;;;;;;;26.08;52.97;98720.81;447216;1271;141776;-65
2022/08/15 10:40:53;;;;;;;3.80;3.30;;;;;;;26.76;52.23;98717.63;438965;1272;142017;-62
2022/08/15 10:51:08;;;;;;;6.90;4.60;;;;;;;26.86;51.33;98705.67;447468;1271;142968;-63
2022/08/15 11:01:20;;;;;;;4.30;4.00;;;;;;;26.77;51.56;98692.71;447433;1271;141271;-62
2022/08/15 11:11:32;;;;;;;4.20;3.90;;;;;;;26.70;51.43;98693.55;446709;1271;144763;-64
2022/08/15 11:21:42;;;;;;;5.70;5.10;;;;;;;26.89;52.29;98693.98;447423;1271;141140;-61
2022/08/15 11:31:52;;;;;;;7.80;5.70;;;;;;;26.86;52.15;98680.52;446691;1271;141297;-63
2022/08/15 11:42:04;;;;;;;6.70;6.10;;;;;;;27.03;52.67;98672.60;447407;1270;140947;-62
2022/08/15 11:52:12;;;;;;;6.80;5.40;;;;;;;27.11;52.44;98680.66;447452;1271;141561;-62
2022/08/15 12:02:38;;;;;;;6.00;5.30;;;;;;;26.82;52.45;98667.02;446703;1271;142868;-63
2022/08/15 12:12:50;;;;;;;5.40;4.90;;;;;;;26.55;52.05;98652.90;447435;1271;142025;-63
2022/08/15 12:23:17;;;;;;;6.40;5.50;;;;;;;26.49;52.71;98644.30;446606;1271;143665;-61
2022/08/15 12:33:23;;;;;;;6.20;5.20;;;;;;;26.34;52.70;98645.83;447370;1271;140872;-63
2022/08/15 12:43:29;;;;;;;5.90;4.80;;;;;;;26.32;53.02;98650.54;447436;1269;141853;-62
2022/08/15 12:53:38;;;;;;;5.70;5.20;;;;;;;26.45;53.32;98638.33;446685;1271;141303;-62
2022/08/15 13:03:45;;;;;;;6.50;5.80;;;;;;;26.46;53.13;98631.73;447478;1271;140762;-63
2022/08/15 13:14:07;;;;;;;5.30;4.90;;;;;;;26.33;53.19;98627.79;446694;1269;142278;-63
2022/08/15 13:24:14;;;;;;;6.60;5.20;;;;;;;26.34;53.24;98625.84;447515;1269;143549;-62
2022/08/15 13:34:25;;;;;;;5.30;4.80;;;;;;;26.50;53.67;98611.81;447128;1272;141852;-64
2022/08/15 13:44:34;;;;;;;5.70;5.20;;;;;;;26.67;53.91;98607.90;446769;1271;142742;-62
2022/08/15 13:54:40;;;;;;;6.50;5.90;;;;;;;26.70;53.76;98605.58;447429;1271;141273;-62
2022/08/15 14:04:54;;;;;;;6.20;5.00;;;;;;;26.73;54.13;98598.70;446696;1271;141268;-63
2022/08/15 14:15:04;;;;;;;6.20;5.10;;;;;;;26.69;54.30;98593.70;447303;1271;141013;-63
2022/08/15 14:25:13;;;;;;;5.50;5.10;;;;;;;26.80;54.57;98590.79;447342;1270;144475;-63
2022/08/15 14:35:39;;;;;;;5.80;5.30;;;;;;;26.96;54.40;98587.39;446727;1271;141803;-66
2022/08/15 14:46:11;;;;;;;5.20;4.70;;;;;;;27.10;53.77;98585.23;447463;1271;142718;-64
2022/08/15 14:56:38;;;;;;;5.60;4.40;;;;;;;27.22;53.71;98577.27;446714;1271;143934;-62
2022/08/15 15:06:47;;;;;;;5.50;5.00;;;;;;;27.30;53.17;98571.75;447282;1271;151987;-63
2022/08/15 15:16:57;;;;;;;5.40;4.90;;;;;;;27.47;52.96;98560.91;446662;1270;141954;-62
2022/08/15 15:27:05;;;;;;;6.60;6.00;;;;;;;27.34;52.84;98551.67;447432;1271;141561;-62
2022/08/15 15:37:11;;;;;;;7.00;6.40;;;;;;;27.25;52.57;98535.20;447265;1271;141359;-62
2022/08/15 15:47:22;;;;;;;8.40;5.70;;;;;;;27.27;53.15;98528.56;446698;1271;142011;-63
2022/08/15 15:57:33;;;;;;;6.40;5.70;;;;;;;27.23;53.01;98533.00;447452;1271;142669;-63
2022/08/15 16:08:00;;;;;;;5.20;4.80;;;;;;;27.12;52.50;98522.45;446726;1271;143655;-62
2022/08/15 16:18:34;;;;;;;5.50;5.00;;;;;;;27.03;52.89;98515.89;447445;1271;142322;-64
2022/08/15 16:28:44;;;;;;;5.30;4.70;;;;;;;26.96;52.86;98521.54;447462;1271;144688;-65
2022/08/15 16:38:58;;;;;;;8.80;5.70;;;;;;;26.85;52.88;98521.77;447468;1271;142607;-63
2022/08/15 16:49:30;;;;;;;8.90;6.40;;;;;;;26.74;53.35;98520.20;447626;1271;142915;-65
2022/08/15 16:59:40;;;;;;;9.70;6.30;;;;;;;26.59;53.84;98517.33;446751;1271;142335;-64
2022/08/15 17:10:01;;;;;;;9.60;7.50;;;;;;;26.41;53.98;98532.52;441895;1271;142195;-63
2022/08/15 17:20:14;;;;;;;7.50;6.70;;;;;;;26.24;53.91;98538.33;440536;1271;146496;-62
2022/08/15 17:30:36;;;;;;;6.80;6.00;;;;;;;26.00;53.84;98545.09;441182;1270;141591;-64
2022/08/15 17:41:07;;;;;;;10.10;5.90;;;;;;;25.68;54.22;98559.42;446621;1271;141084;-64
2022/08/15 17:51:19;;;;;;;7.50;6.80;;;;;;;25.34;54.89;98565.61;443567;1271;146819;-62
2022/08/15 18:01:37;;;;;;;8.90;7.60;;;;;;;25.01;55.53;98567.41;447331;1270;143050;-62
2022/08/15 18:11:45;;;;;;;11.80;7.50;;;;;;;24.75;56.28;98579.50;445995;1271;142497;-64
2022/08/15 18:22:21;;;;;;;8.60;7.30;;;;;;;24.47;57.23;98594.63;443369;1271;142081;-62
2022/08/15 18:32:38;;;;;;;7.70;6.30;;;;;;;24.23;57.44;98618.28;439412;1271;1392944;-61
2022/08/15 18:42:57;;;;;;;8.90;6.10;;;;;;;23.98;57.26;98642.05;436610;1271;193930;-62
2022/08/15 18:53:23;;;;;;;8.70;5.30;;;;;;;23.73;57.45;98653.17;446700;1270;142239;-63
2022/08/15 19:03:30;;;;;;;;;;;;;;;23.42;58.05;98661.79;436339;1271;141622;-62
2022/08/15 19:13:42;;;;;;;7.90;6.70;;;;;;;23.16;59.13;98659.45;438152;1271;128005;-63
2022/08/15 19:23:52;;;;;;;9.20;6.60;;;;;;;22.95;60.30;98673.77;441178;1271;141767;-61
2022/08/15 19:34:14;;;;;;;7.30;6.40;;;;;;;22.72;60.99;98688.75;447282;1271;142472;-63
2022/08/15 19:44:37;;;;;;;7.30;6.30;;;;;;;22.50;61.81;98692.17;437016;1271;142135;-64
2022/08/15 19:54:49;;;;;;;7.40;6.60;;;;;;;22.28;62.71;98698.94;446510;1270;142679;-63
2022/08/15 20:05:28;;;;;;;6.90;6.20;;;;;;;22.06;63.49;98710.23;438585;1271;144093;-64
2022/08/15 20:16:08;;;;;;;9.10;7.90;;;;;;;21.89;64.30;98719.31;445306;1271;142261;-66
2022/08/15 20:26:44;;;;;;;8.60;7.70;;;;;;;21.77;65.30;98718.85;431510;1272;147501;-63
2022/08/15 20:36:50;;;;;;;8.50;7.60;;;;;;;21.65;66.21;98713.34;446847;1271;142903;-65
2022/08/15 20:47:02;;;;;;;8.30;7.50;;;;;;;21.68;66.83;98725.80;441173;1271;141904;-62
2022/08/15 20:57:14;;;;;;;9.60;8.50;;;;;;;21.44;67.62;98731.27;433399;1270;142324;-62
2022/08/15 21:08:03;;;;;;;9.40;8.30;;;;;;;21.26;68.77;98733.80;435744;1271;141897;-64
2022/08/15 21:18:25;;;;;;;16.30;8.90;;;;;;;21.23;69.63;98731.14;437047;1271;141886;-62
2022/08/15 21:28:41;;;;;;;10.10;9.20;;;;;;;21.31;69.87;98720.57;438440;1271;147051;-62
2022/08/15 21:38:58;;;;;;;11.00;8.90;;;;;;;21.31;70.24;98719.34;436296;1271;142007;-63
2022/08/15 21:49:05;;;;;;;12.10;9.40;;;;;;;21.25;70.71;98716.25;447351;1271;144290;-64
2022/08/15 21:59:45;;;;;;;10.90;9.80;;;;;;;21.02;71.16;98727.07;446601;1271;143916;-63
2022/08/15 22:10:16;;;;;;;13.90;10.30;;;;;;;20.69;72.12;98724.20;447068;1272;142786;-62
2022/08/15 22:20:25;;;;;;;10.30;9.30;;;;;;;20.49;73.01;98727.46;441518;1271;143381;-62
2022/08/15 22:30:40;;;;;;;17.70;10.90;;;;;;;20.33;73.82;98731.38;442564;1271;145292;-64
2022/08/15 22:40:47;;;;;;;11.10;10.10;;;;;;;20.19;74.42;98725.77;439549;1271;147778;-61
2022/08/15 22:50:58;;;;;;;11.00;9.80;;;;;;;20.28;75.11;98725.73;433690;1271;145732;-63
2022/08/15 23:01:06;;;;;;;12.10;11.00;;;;;;;20.39;75.08;98724.91;430810;1271;145065;-62
2022/08/15 23:11:23;;;;;;;11.80;10.60;;;;;;;20.42;75.18;98716.98;431268;1271;143832;-64
2022/08/15 23:21:34;;;;;;;11.80;10.60;;;;;;;20.47;75.26;98714.05;430744;1271;142801;-61
2022/08/15 23:31:46;;;;;;;11.30;10.20;;;;;;;20.41;75.62;98716.92;431041;1271;142382;-62
2022/08/15 23:42:02;;;;;;;12.70;11.60;;;;;;;20.32;75.88;98714.39;430089;1271;142392;-63
2022/08/15 23:52:08;;;;;;;12.10;11.00;;;;;;;20.24;76.32;98719.20;430707;1271;142979;-61
